Time;durP1;ratioP1;P1;durP2;ratioP2;P2;SDS_P1;SDS_P2;PMS_P1;PMS_P2;Temp;Humidity;BMP_temperature;BMP_pressure;BME280_temperature;BME280_humidity;BME280_pressure;Samples;Min_cycle;Max_cycle;Signal;HPM_P1;HPM_P2
2023/05/15 00:01:31;;;;;;;21.58;15.00;;;15.80;99.90;;;;;;6172314;23;20000;-90
2023/05/15 00:03:56;;;;;;;18.10;14.25;;;15.80;99.90;;;;;;6196765;23;20075;-89
2023/05/15 00:06:22;;;;;;;19.30;14.45;;;15.70;99.90;;;;;;6171657;23;20005;-89
2023/05/15 00:08:48;;;;;;;20.90;14.32;;;15.70;99.90;;;;;;6196484;23;20079;-89
2023/05/15 00:11:14;;;;;;;21.52;14.85;;;15.70;99.90;;;;;;6196687;23;20011;-90
2023/05/15 00:13:39;;;;;;;19.08;14.02;;;15.70;99.90;;;;;;6221560;23;20475;-89
2023/05/15 00:16:09;;;;;;;18.58;14.65;;;15.60;99.90;;;;;;6221367;23;20011;-89
2023/05/15 00:18:35;;;;;;;18.23;14.73;;;15.60;99.90;;;;;;6220812;23;20095;-88
2023/05/15 00:21:01;;;;;;;20.92;15.05;;;15.60;99.90;;;;;;6221930;23;20032;-88
2023/05/15 00:23:26;;;;;;;16.45;13.52;;;15.60;99.90;;;;;;6172226;23;20043;-88
2023/05/15 00:25:52;;;;;;;19.30;14.52;;;15.50;99.90;;;;;;6171626;23;20004;-90
2023/05/15 00:28:18;;;;;;;18.33;13.30;;;15.50;99.90;;;;;;6171814;23;20041;-89
2023/05/15 00:30:43;;;;;;;17.30;13.45;;;15.50;99.90;;;;;;6171916;23;20004;-88
2023/05/15 00:33:09;;;;;;;15.57;13.73;;;15.40;99.90;;;;;;6221482;23;20000;-88
2023/05/15 00:35:35;;;;;;;20.48;14.45;;;15.40;99.90;;;;;;6197180;23;20420;-90
2023/05/15 00:38:01;;;;;;;15.88;13.27;;;15.40;99.90;;;;;;6198486;23;20011;-90
2023/05/15 00:40:28;;;;;;;20.15;13.55;;;15.40;99.90;;;;;;6196826;23;20004;-90
2023/05/15 00:42:54;;;;;;;16.70;13.70;;;15.30;99.90;;;;;;6222091;23;20438;-88
2023/05/15 00:45:22;;;;;;;18.92;13.50;;;15.30;99.90;;;;;;6205612;23;20024;-89
2023/05/15 00:47:49;;;;;;;17.88;13.57;;;15.30;99.90;;;;;;6204465;23;20011;-89
2023/05/15 00:50:15;;;;;;;17.52;13.73;;;15.30;99.90;;;;;;6204332;23;20018;-89
2023/05/15 00:52:42;;;;;;;18.35;13.00;;;15.20;99.90;;;;;;6173692;23;20106;-89
2023/05/15 00:55:07;;;;;;;16.92;13.32;;;15.20;99.90;;;;;;6174443;23;20004;-89
2023/05/15 00:57:33;;;;;;;18.50;12.90;;;15.20;99.90;;;;;;6173984;23;20086;-90
2023/05/15 01:00:01;;;;;;;17.15;13.63;;;15.20;99.90;;;;;;6217766;23;20003;-91
2023/05/15 01:02:26;;;;;;;18.15;13.43;;;15.10;99.90;;;;;;6223671;23;20030;-91
2023/05/15 01:04:52;;;;;;;17.48;12.85;;;15.10;99.90;;;;;;6223927;23;20008;-90
2023/05/15 01:07:18;;;;;;;15.75;13.23;;;15.10;99.90;;;;;;6199227;23;20006;-90
2023/05/15 01:09:46;;;;;;;17.15;12.10;;;15.10;99.90;;;;;;6239145;23;20031;-89
2023/05/15 01:12:15;;;;;;;19.60;13.50;;;15.00;99.90;;;;;;6222013;23;20055;-89
2023/05/15 01:14:41;;;;;;;17.25;13.68;;;15.00;99.90;;;;;;6221845;23;20010;-89
2023/05/15 01:17:07;;;;;;;15.27;12.45;;;15.00;99.90;;;;;;6171772;23;20032;-89
2023/05/15 01:19:34;;;;;;;19.10;13.73;;;14.90;99.90;;;;;;6196513;23;20095;-89
2023/05/15 01:22:00;;;;;;;16.45;12.85;;;14.90;99.90;;;;;;6196338;23;20443;-89
2023/05/15 01:24:43;;;;;;;22.27;14.95;;;14.90;99.90;;;;;;6221570;23;20004;-89
2023/05/15 01:27:15;;;;;;;18.77;14.13;;;14.90;99.90;;;;;;6221423;23;20019;-89
2023/05/15 01:29:55;;;;;;;22.75;15.02;;;14.80;99.90;;;;;;6221005;23;20474;-88
2023/05/15 01:32:47;;;;;;;18.85;14.07;;;14.80;99.90;;;;;;6221206;23;20123;-88
2023/05/15 01:35:47;;;;;;;18.15;14.25;;;14.80;99.90;;;;;;6245927;23;20008;-90
2023/05/15 01:38:22;;;;;;;21.65;14.93;;;14.80;99.90;;;;;;6220789;23;20004;-90
2023/05/15 01:40:53;;;;;;;18.83;14.27;;;14.80;99.90;;;;;;6220500;23;20008;-90
2023/05/15 01:43:24;;;;;;;19.10;14.23;;;14.80;99.90;;;;;;6220786;23;20320;-90
2023/05/15 01:45:50;;;;;;;;;;;14.70;99.90;;;;;;6226409;23;20000;-89
2023/05/15 01:48:17;;;;;;;19.17;13.73;;;14.70;99.90;;;;;;6243931;23;19899;-88
2023/05/15 01:50:45;;;;;;;19.73;14.73;;;14.70;99.90;;;;;;6219241;23;20008;-88
2023/05/15 01:53:11;;;;;;;16.13;13.98;;;14.70;99.90;;;;;;6219701;23;20012;-89
2023/05/15 01:55:38;;;;;;;18.67;13.88;;;14.70;99.90;;;;;;6217410;23;20015;-89
2023/05/15 01:58:05;;;;;;;18.88;12.85;;;14.70;99.90;;;;;;6221395;23;20451;-89
2023/05/15 02:00:33;;;;;;;16.80;13.77;;;14.60;99.90;;;;;;6199297;23;20031;-90
2023/05/15 02:02:59;;;;;;;18.50;13.70;;;14.60;99.90;;;;;;6257100;23;20075;-90
2023/05/15 02:05:26;;;;;;;18.67;12.98;;;14.60;99.90;;;;;;6172649;23;20012;-90
2023/05/15 02:07:52;;;;;;;17.45;13.52;;;14.60;99.90;;;;;;6171537;23;20005;-90
2023/05/15 02:10:18;;;;;;;17.10;14.23;;;14.60;99.90;;;;;;6171022;23;20008;-90
2023/05/15 02:12:45;;;;;;;16.85;12.63;;;14.60;99.90;;;;;;6220438;23;20008;-89
2023/05/15 02:15:12;;;;;;;18.90;14.13;;;14.50;99.90;;;;;;6220654;23;20008;-90
2023/05/15 02:17:38;;;;;;;19.35;13.68;;;14.50;99.90;;;;;;6246879;23;20012;-90
2023/05/15 02:20:05;;;;;;;19.60;13.35;;;14.50;99.90;;;;;;6195350;23;20058;-90
2023/05/15 02:22:30;;;;;;;15.50;13.60;;;14.50;99.90;;;;;;6195665;23;20008;-89
2023/05/15 02:24:56;;;;;;;16.77;13.60;;;14.50;99.90;;;;;;6195836;23;20496;-89
2023/05/15 02:27:28;;;;;;;17.85;13.85;;;14.50;99.90;;;;;;6195436;23;20004;-89
2023/05/15 02:30:21;;;;;;;19.45;13.25;;;14.40;99.90;;;;;;6220209;23;20450;-89
2023/05/15 02:33:05;;;;;;;19.23;14.45;;;14.40;99.90;;;;;;6220537;23;20053;-89
2023/05/15 02:35:54;;;;;;;17.88;14.30;;;14.40;99.90;;;;;;6220642;23;20004;-89
2023/05/15 02:38:28;;;;;;;20.30;13.85;;;14.40;99.90;;;;;;6220374;23;20011;-90
2023/05/15 02:40:55;;;;;;;19.98;13.70;;;14.30;99.90;;;;;;6247340;23;20001;-90
2023/05/15 02:43:22;;;;;;;20.48;14.93;;;14.30;99.90;;;;;;6195916;23;20083;-89
2023/05/15 02:45:48;;;;;;;20.20;13.73;;;14.30;99.90;;;;;;6220986;23;20419;-89
2023/05/15 02:48:14;;;;;;;21.30;13.95;;;14.30;99.90;;;;;;6197057;23;20011;-90
2023/05/15 02:50:41;;;;;;;20.80;14.82;;;14.30;99.90;;;;;;6221756;23;20000;-87
2023/05/15 02:53:08;;;;;;;17.35;14.07;;;14.20;99.90;;;;;;6197181;23;20383;-88
2023/05/15 02:55:34;;;;;;;20.73;15.18;;;14.20;99.90;;;;;;6221663;23;20000;-87
2023/05/15 02:58:02;;;;;;;20.20;14.50;;;14.20;99.90;;;;;;6196545;23;20008;-87
2023/05/15 03:00:28;;;;;;;20.02;14.27;;;14.20;99.90;;;;;;6248739;23;20007;-88
2023/05/15 03:02:54;;;;;;;23.00;16.08;;;14.20;99.90;;;;;;6172221;23;20004;-89
2023/05/15 03:05:19;;;;;;;19.33;14.60;;;14.20;99.90;;;;;;6197210;23;20028;-90
2023/05/15 03:07:45;;;;;;;21.92;16.33;;;14.10;99.90;;;;;;6248555;23;20050;-90
2023/05/15 03:10:11;;;;;;;21.60;15.55;;;14.10;99.90;;;;;;6223710;23;19988;-90
2023/05/15 03:12:38;;;;;;;22.13;15.98;;;14.10;99.90;;;;;;6198583;22;20005;-89
2023/05/15 03:15:05;;;;;;;23.38;16.52;;;14.10;99.90;;;;;;6247280;22;20008;-89
2023/05/15 03:17:30;;;;;;;24.48;16.80;;;14.00;99.90;;;;;;6192880;23;20018;-89
2023/05/15 03:19:56;;;;;;;25.40;17.23;;;14.00;99.90;;;;;;6174039;23;20068;-89
2023/05/15 03:22:22;;;;;;;24.38;17.17;;;14.00;99.90;;;;;;6172654;23;20008;-88
2023/05/15 03:24:48;;;;;;;23.83;18.50;;;14.00;99.90;;;;;;6198550;23;20331;-88
2023/05/15 03:27:14;;;;;;;26.08;19.63;;;14.00;99.90;;;;;;6173748;23;20022;-90
2023/05/15 03:29:41;;;;;;;28.65;20.83;;;13.90;99.90;;;;;;6222573;23;20036;-89
2023/05/15 03:32:09;;;;;;;28.58;19.75;;;13.90;99.90;;;;;;6197590;23;20008;-90
2023/05/15 03:34:35;;;;;;;25.00;19.73;;;13.90;99.90;;;;;;6198356;23;20038;-89
2023/05/15 03:37:01;;;;;;;29.35;20.92;;;13.90;99.90;;;;;;6197489;23;20008;-90
2023/05/15 03:39:27;;;;;;;27.20;20.08;;;13.80;99.90;;;;;;6226557;23;20022;-91
2023/05/15 03:41:52;;;;;;;34.33;21.45;;;13.80;99.90;;;;;;6197093;23;20008;-89
2023/05/15 03:44:18;;;;;;;33.90;21.98;;;13.80;99.90;;;;;;6172856;23;20011;-90
2023/05/15 03:46:44;;;;;;;33.80;22.23;;;13.80;99.90;;;;;;6172705;23;20038;-90
2023/05/15 03:49:09;;;;;;;32.40;22.20;;;13.80;99.90;;;;;;6197697;23;20050;-90
2023/05/15 03:51:35;;;;;;;32.55;22.48;;;13.80;99.90;;;;;;6172642;23;20012;-90
2023/05/15 03:54:03;;;;;;;30.98;21.73;;;13.80;99.90;;;;;;6172548;23;20083;-90
2023/05/15 03:56:30;;;;;;;32.08;22.48;;;13.80;99.90;;;;;;6174699;23;20035;-90
2023/05/15 03:58:56;;;;;;;32.35;22.95;;;13.90;99.90;;;;;;6197003;23;20011;-91
2023/05/15 04:01:21;;;;;;;32.42;22.38;;;13.90;99.90;;;;;;6173834;23;20431;-88
2023/05/15 04:03:47;;;;;;;33.22;22.80;;;13.90;99.90;;;;;;6203482;23;20395;-89
2023/05/15 04:06:13;;;;;;;33.03;22.13;;;13.90;99.90;;;;;;6172396;23;20005;-90
2023/05/15 04:08:38;;;;;;;32.45;22.25;;;13.90;99.90;;;;;;6197661;23;20043;-90
2023/05/15 04:11:04;;;;;;;36.38;22.05;;;13.90;99.90;;;;;;6197850;23;20005;-90
2023/05/15 04:13:30;;;;;;;36.20;23.65;;;13.90;99.90;;;;;;6173146;23;20004;-87
2023/05/15 04:15:56;;;;;;;34.75;25.00;;;13.90;99.90;;;;;;6221597;23;20004;-90
2023/05/15 04:18:21;;;;;;;33.40;22.02;;;13.90;99.90;;;;;;6222654;23;20044;-88
2023/05/15 04:20:47;;;;;;;34.20;23.38;;;13.90;99.90;;;;;;6172360;23;20091;-89
2023/05/15 04:23:13;;;;;;;34.65;24.52;;;13.90;99.90;;;;;;6196580;23;20004;-90
2023/05/15 04:25:41;;;;;;;33.45;22.90;;;13.90;99.90;;;;;;6197296;23;20150;-90
2023/05/15 04:28:07;;;;;;;33.10;22.98;;;13.90;99.90;;;;;;6196999;23;20004;-90
2023/05/15 04:30:32;;;;;;;31.65;22.27;;;13.90;99.90;;;;;;6171669;23;20011;-89
2023/05/15 04:32:58;;;;;;;33.05;22.85;;;13.90;99.90;;;;;;6172142;23;20031;-89
2023/05/15 04:35:24;;;;;;;29.83;21.80;;;13.90;99.90;;;;;;6221682;23;20434;-89
2023/05/15 04:37:49;;;;;;;35.30;23.02;;;13.90;99.90;;;;;;6171527;23;20004;-88
2023/05/15 04:40:15;;;;;;;30.55;22.77;;;13.90;99.90;;;;;;6196037;23;20013;-87
2023/05/15 04:42:41;;;;;;;35.85;23.20;;;13.90;99.90;;;;;;6171176;23;20009;-88
2023/05/15 04:45:10;;;;;;;31.83;22.17;;;13.80;99.90;;;;;;6196002;23;20398;-88
2023/05/15 04:47:36;;;;;;;31.55;23.00;;;13.80;99.90;;;;;;6222464;23;20004;-91
2023/05/15 04:50:02;;;;;;;34.38;22.88;;;13.90;99.90;;;;;;6223813;23;20309;-90
2023/05/15 04:52:27;;;;;;;35.22;22.60;;;13.80;99.90;;;;;;6251787;23;20004;-91
2023/05/15 04:54:54;;;;;;;32.30;24.00;;;13.80;99.90;;;;;;6199217;23;20331;-90
2023/05/15 04:57:20;;;;;;;32.10;22.02;;;13.80;99.90;;;;;;6174390;23;20009;-90
2023/05/15 04:59:46;;;;;;;31.58;22.20;;;13.80;99.90;;;;;;6198225;23;20031;-91
2023/05/15 05:02:12;;;;;;;31.83;21.70;;;13.90;99.90;;;;;;6222117;23;20000;-90
2023/05/15 05:04:37;;;;;;;30.35;22.10;;;13.80;99.90;;;;;;6197010;23;20004;-90
2023/05/15 05:07:04;;;;;;;30.83;22.33;;;13.90;99.90;;;;;;6171529;23;20420;-90
2023/05/15 05:09:30;;;;;;;29.50;20.83;;;13.90;99.90;;;;;;6171873;23;20450;-89
2023/05/15 05:11:59;;;;;;;34.33;22.30;;;13.90;99.90;;;;;;6171749;23;20009;-90
2023/05/15 05:14:25;;;;;;;27.20;21.23;;;13.90;99.90;;;;;;6221211;23;20023;-89
2023/05/15 05:16:51;;;;;;;29.65;22.10;;;13.80;99.90;;;;;;6196138;23;20008;-89
2023/05/15 05:19:17;;;;;;;28.75;21.23;;;13.90;99.90;;;;;;6171000;23;20394;-90
2023/05/15 05:21:45;;;;;;;32.92;21.77;;;13.90;99.90;;;;;;6204987;23;20008;-89
2023/05/15 05:24:11;;;;;;;32.17;22.88;;;13.90;99.90;;;;;;6198295;23;20436;-89
2023/05/15 05:26:36;;;;;;;30.25;22.67;;;13.90;99.90;;;;;;6198988;23;20079;-90
2023/05/15 05:29:02;;;;;;;33.47;21.60;;;13.90;99.90;;;;;;6174837;23;20065;-91
2023/05/15 05:31:28;;;;;;;32.97;21.80;;;13.90;99.90;;;;;;6173268;23;20066;-89
2023/05/15 05:33:54;;;;;;;30.05;22.58;;;13.90;99.90;;;;;;6249243;23;20034;-90
2023/05/15 05:36:20;;;;;;;31.27;22.17;;;13.90;99.90;;;;;;6221865;23;20414;-88
2023/05/15 05:38:45;;;;;;;34.35;22.60;;;13.90;99.90;;;;;;6197866;23;20004;-89
2023/05/15 05:41:11;;;;;;;29.40;20.52;;;13.90;99.90;;;;;;6196445;23;20031;-88
2023/05/15 05:43:37;;;;;;;33.58;22.85;;;13.90;99.90;;;;;;6196477;23;20087;-88
2023/05/15 05:46:02;;;;;;;30.17;21.65;;;13.90;99.90;;;;;;6171911;23;20004;-88
2023/05/15 05:48:28;;;;;;;31.02;22.17;;;13.90;99.90;;;;;;6173581;23;20007;-88
2023/05/15 05:50:54;;;;;;;28.45;22.20;;;13.90;99.90;;;;;;6221530;23;20004;-88
2023/05/15 05:53:21;;;;;;;29.48;20.65;;;14.00;99.90;;;;;;6196492;23;20024;-90
2023/05/15 05:55:47;;;;;;;25.83;19.83;;;13.90;99.90;;;;;;6221078;23;20010;-90
2023/05/15 05:58:13;;;;;;;33.20;21.52;;;14.00;99.90;;;;;;6196396;23;20004;-89
2023/05/15 06:00:38;;;;;;;28.58;20.38;;;14.00;99.90;;;;;;6196163;23;20004;-89
2023/05/15 06:03:04;;;;;;;25.33;20.48;;;14.00;99.90;;;;;;6171469;23;20012;-88
2023/05/15 06:05:33;;;;;;;28.33;21.30;;;14.00;99.90;;;;;;6198444;23;20447;-89
2023/05/15 06:08:01;;;;;;;29.42;20.30;;;14.00;99.90;;;;;;6175650;23;20059;-91
2023/05/15 06:10:26;;;;;;;27.83;20.42;;;14.00;99.90;;;;;;6173567;23;20004;-89
2023/05/15 06:12:52;;;;;;;26.70;20.25;;;14.10;99.90;;;;;;6222881;23;20082;-90
2023/05/15 06:15:19;;;;;;;26.17;20.38;;;14.10;99.90;;;;;;6197241;23;20012;-91
2023/05/15 06:17:45;;;;;;;25.92;19.58;;;14.10;99.90;;;;;;6172123;23;20102;-90
2023/05/15 06:20:11;;;;;;;27.02;19.35;;;14.10;99.90;;;;;;6172230;23;20008;-90
2023/05/15 06:22:37;;;;;;;25.95;19.80;;;14.10;99.90;;;;;;6172765;23;20467;-90
2023/05/15 06:25:06;;;;;;;23.23;19.15;;;14.10;99.90;;;;;;6222544;23;20261;-89
2023/05/15 06:27:33;;;;;;;24.45;19.60;;;14.20;99.90;;;;;;6198694;23;20054;-89
2023/05/15 06:29:59;;;;;;;25.27;18.42;;;14.20;99.90;;;;;;6198578;23;20008;-90
2023/05/15 06:32:25;;;;;;;22.77;18.77;;;14.20;99.90;;;;;;6224262;23;20027;-88
2023/05/15 06:34:50;;;;;;;25.40;19.30;;;14.20;99.90;;;;;;6223659;23;20004;-89
2023/05/15 06:37:16;;;;;;;23.92;19.00;;;14.30;99.90;;;;;;6224111;23;20004;-89
2023/05/15 06:39:42;;;;;;;25.75;20.23;;;14.30;99.90;;;;;;6223826;23;20008;-89
2023/05/15 06:42:08;;;;;;;23.83;19.67;;;14.30;99.90;;;;;;6199049;23;20068;-88
2023/05/15 06:44:34;;;;;;;24.25;20.48;;;14.30;99.90;;;;;;6198219;23;20039;-89
2023/05/15 06:47:01;;;;;;;30.10;21.40;;;14.30;99.90;;;;;;6222669;23;20427;-90
2023/05/15 06:49:27;;;;;;;26.52;21.75;;;14.30;99.90;;;;;;6198023;23;20446;-89
2023/05/15 06:51:53;;;;;;;25.92;21.90;;;14.40;99.90;;;;;;6199098;23;20416;-90
2023/05/15 06:54:19;;;;;;;26.35;21.02;;;14.40;99.90;;;;;;6209002;23;20419;-90
2023/05/15 06:56:45;;;;;;;25.13;20.48;;;14.40;99.90;;;;;;6222196;23;20034;-89
2023/05/15 06:59:11;;;;;;;23.55;19.42;;;14.40;99.90;;;;;;6199412;23;20419;-89
2023/05/15 07:01:37;;;;;;;22.63;20.02;;;14.40;99.90;;;;;;6198270;23;20004;-90
2023/05/15 07:04:03;;;;;;;21.85;19.50;;;14.40;99.90;;;;;;6198590;23;20027;-89
2023/05/15 07:06:30;;;;;;;24.58;18.50;;;14.40;99.90;;;;;;6196602;23;20035;-91
2023/05/15 07:08:59;;;;;;;26.17;21.33;;;14.40;99.90;;;;;;6174425;23;20054;-91
2023/05/15 07:11:25;;;;;;;24.27;19.27;;;14.50;99.90;;;;;;6198854;23;20008;-90
2023/05/15 07:13:52;;;;;;;25.00;21.65;;;14.50;99.90;;;;;;6223606;23;20368;-90
2023/05/15 07:16:19;;;;;;;25.52;20.33;;;14.50;99.90;;;;;;6181154;23;19996;-91
2023/05/15 07:18:45;;;;;;;24.92;19.50;;;14.50;99.90;;;;;;6194793;23;20019;-92
2023/05/15 07:21:11;;;;;;;25.15;20.17;;;14.60;99.90;;;;;;6214926;23;20004;-90
2023/05/15 07:23:36;;;;;;;22.65;18.85;;;14.60;99.90;;;;;;6223918;23;20004;-92
2023/05/15 07:26:02;;;;;;;26.55;20.23;;;14.60;99.90;;;;;;6174552;23;20015;-91
2023/05/15 07:28:28;;;;;;;22.55;18.52;;;14.70;99.90;;;;;;6198319;23;20450;-88
2023/05/15 07:30:53;;;;;;;23.60;19.48;;;14.70;99.90;;;;;;6197858;23;20071;-88
2023/05/15 07:33:19;;;;;;;21.25;17.17;;;14.80;99.90;;;;;;6172887;23;20089;-89
2023/05/15 07:35:45;;;;;;;21.52;17.17;;;14.90;99.90;;;;;;6171947;23;20035;-89
2023/05/15 07:38:11;;;;;;;18.80;16.40;;;14.90;99.90;;;;;;6197430;23;20004;-88
2023/05/15 07:40:37;;;;;;;21.42;17.23;;;15.00;99.90;;;;;;6222709;23;20040;-88
2023/05/15 07:43:03;;;;;;;18.95;17.00;;;15.00;99.90;;;;;;6173214;23;20431;-89
2023/05/15 07:45:28;;;;;;;22.52;18.35;;;15.10;99.90;;;;;;6198229;23;20004;-93
2023/05/15 07:47:54;;;;;;;27.83;20.38;;;15.20;99.90;;;;;;6173981;23;20008;-90
2023/05/15 07:50:20;;;;;;;25.05;19.85;;;15.20;99.90;;;;;;6224386;23;20031;-90
2023/05/15 07:52:46;;;;;;;25.23;19.67;;;15.30;99.90;;;;;;6227823;23;20053;-91
2023/05/15 07:55:12;;;;;;;24.08;19.80;;;15.30;99.90;;;;;;6198906;23;20066;-88
2023/05/15 07:57:38;;;;;;;24.70;20.52;;;15.30;99.90;;;;;;6198080;23;20008;-90
2023/05/15 08:00:09;;;;;;;25.95;20.83;;;15.40;99.90;;;;;;6174028;23;20009;-89
2023/05/15 08:02:36;;;;;;;25.88;21.42;;;15.40;99.90;;;;;;6199685;23;20008;-88
2023/05/15 08:05:02;;;;;;;27.10;21.73;;;15.50;99.90;;;;;;6223641;23;20023;-89
2023/05/15 08:07:31;;;;;;;24.23;18.48;;;15.50;99.90;;;;;;6198466;23;20005;-91
2023/05/15 08:09:57;;;;;;;21.05;15.90;;;15.50;99.90;;;;;;6198273;23;20011;-90
2023/05/15 08:12:23;;;;;;;21.92;18.50;;;15.60;99.90;;;;;;6173169;23;20008;-89
2023/05/15 08:14:53;;;;;;;19.02;16.75;;;15.70;99.90;;;;;;6198117;23;20432;-90
2023/05/15 08:17:20;;;;;;;20.40;16.33;;;15.70;99.90;;;;;;6198704;23;20068;-90
2023/05/15 08:19:46;;;;;;;19.27;16.08;;;15.80;99.90;;;;;;6197896;23;20027;-91
2023/05/15 08:22:12;;;;;;;17.65;14.82;;;15.90;99.90;;;;;;6223258;23;20004;-89
2023/05/15 08:24:41;;;;;;;20.55;16.35;;;15.90;99.90;;;;;;6173767;23;20080;-90
2023/05/15 08:27:08;;;;;;;22.15;18.70;;;16.00;99.90;;;;;;6223685;23;20324;-90
2023/05/15 08:29:35;;;;;;;25.23;19.02;;;16.10;99.90;;;;;;6198507;23;20045;-92
2023/05/15 08:32:01;;;;;;;19.23;16.70;;;16.10;99.90;;;;;;6198309;23;20001;-91
2023/05/15 08:34:27;;;;;;;23.83;18.90;;;16.20;99.90;;;;;;6198540;23;20083;-90
2023/05/15 08:36:53;;;;;;;20.63;17.77;;;16.20;99.90;;;;;;6198286;23;20027;-90
2023/05/15 08:39:18;;;;;;;22.40;18.38;;;16.30;99.90;;;;;;6197764;23;20427;-88
2023/05/15 08:45:07;;;;;;;24.85;20.52;;;16.40;99.90;;;;;;6249699;23;20004;-91
2023/05/15 08:47:37;;;;;;;25.80;20.75;;;16.50;99.90;;;;;;6197817;23;20066;-89
2023/05/15 08:50:14;;;;;;;22.90;20.42;;;16.50;99.90;;;;;;6224231;23;20014;-90
2023/05/15 08:52:41;;;;;;;24.50;19.83;;;16.50;99.90;;;;;;6222199;23;20304;-90
2023/05/15 08:55:10;;;;;;;25.20;21.10;;;16.50;99.90;;;;;;6197708;23;20012;-91
2023/05/15 08:57:37;;;;;;;25.92;20.08;;;16.50;99.90;;;;;;6192628;23;20015;-87
2023/05/15 09:00:08;;;;;;;24.95;19.60;;;16.60;99.90;;;;;;6245781;23;20008;-88
2023/05/15 09:02:37;;;;;;;;;;;16.70;99.90;;;;;;6247153;22;20000;-88
2023/05/15 09:05:04;;;;;;;30.13;20.73;;;16.80;99.90;;;;;;6246611;23;19891;-88
2023/05/15 09:07:30;;;;;;;25.50;19.20;;;16.80;99.90;;;;;;6246572;23;20067;-86
2023/05/15 09:09:57;;;;;;;25.05;20.80;;;16.90;99.90;;;;;;6246567;23;19991;-88
2023/05/15 09:12:25;;;;;;;24.42;19.65;;;16.90;99.90;;;;;;6219094;22;20011;-90
2023/05/15 09:14:51;;;;;;;24.73;20.30;;;16.90;99.90;;;;;;6201336;23;20012;-91
2023/05/15 09:17:16;;;;;;;25.02;20.42;;;17.00;99.90;;;;;;6200844;23;20011;-90
2023/05/15 09:19:44;;;;;;;26.60;19.55;;;17.10;99.90;;;;;;6225949;23;20016;-91
2023/05/15 09:22:35;;;;;;;0.00;0.00;;;17.20;99.90;;;;;;6201707;23;20004;-91
2023/05/15 09:25:02;;;;;;;0.55;0.55;;;17.20;99.90;;;;;;6224907;23;20088;-90
2023/05/15 09:27:28;;;;;;;44.38;4.78;;;17.30;99.90;;;;;;6200108;23;20020;-91
2023/05/15 09:29:56;;;;;;;0.20;0.20;;;17.40;99.90;;;;;;6198085;23;20012;-89
2023/05/15 09:32:27;;;;;;;29.42;22.20;;;17.40;99.90;;;;;;6197796;23;20012;-89
2023/05/15 09:34:52;;;;;;;34.47;27.83;;;17.50;99.90;;;;;;6197956;23;20091;-89
2023/05/15 09:37:30;;;;;;;1999.90;999.90;;;17.50;99.90;;;;;;6197067;23;20008;-89
2023/05/15 09:40:08;;;;;;;1999.90;999.90;;;17.60;99.90;;;;;;6222886;23;20008;-89
2023/05/15 09:42:35;;;;;;;1505.88;755.42;;;17.70;99.90;;;;;;6223012;23;20031;-89
2023/05/15 09:45:01;;;;;;;1999.90;999.90;;;17.80;99.90;;;;;;6198946;23;20008;-89
2023/05/15 09:47:27;;;;;;;1999.90;999.90;;;17.80;99.90;;;;;;6212165;23;20003;-89
2023/05/15 09:49:53;;;;;;;1999.90;999.90;;;17.80;99.90;;;;;;6215826;23;20008;-90
2023/05/15 09:52:18;;;;;;;1999.90;999.90;;;17.80;99.90;;;;;;6233796;23;20011;-89
2023/05/15 09:54:47;;;;;;;1999.90;999.90;;;17.80;99.90;;;;;;6180253;23;20008;-91
2023/05/15 09:57:13;;;;;;;1999.90;999.90;;;17.80;99.90;;;;;;6229530;23;20011;-91
2023/05/15 09:59:46;;;;;;;104.90;97.80;;;17.90;99.90;;;;;;6202944;23;20008;-90
2023/05/15 10:02:30;;;;;;;565.97;311.30;;;17.90;99.90;;;;;;6227458;23;20360;-89
2023/05/15 10:04:57;;;;;;;1999.90;999.90;;;17.90;99.90;;;;;;6198230;23;20001;-89
2023/05/15 10:07:30;;;;;;;107.53;100.28;;;17.90;99.90;;;;;;6203695;23;20000;-88
2023/05/15 10:09:57;;;;;;;1999.90;999.90;;;17.90;99.90;;;;;;6221840;23;20004;-87
2023/05/15 10:12:23;;;;;;;91.93;84.53;;;17.90;99.90;;;;;;6205682;23;20015;-90
2023/05/15 10:14:50;;;;;;;1999.90;999.90;;;18.00;99.90;;;;;;6218594;23;19989;-91
2023/05/15 10:17:21;;;;;;;1999.90;999.90;;;18.00;99.90;;;;;;6190210;23;20004;-91
2023/05/15 10:19:50;;;;;;;1999.90;999.90;;;18.10;99.90;;;;;;6175566;23;20016;-89
2023/05/15 10:22:22;;;;;;;1999.90;999.90;;;18.10;99.90;;;;;;6196366;23;20027;-88
2023/05/15 10:24:55;;;;;;;1999.90;999.90;;;18.10;99.90;;;;;;6222394;23;20000;-90
2023/05/15 10:27:22;;;;;;;1999.90;999.90;;;18.10;99.90;;;;;;6198644;23;20369;-90
2023/05/15 10:29:49;;;;;;;1999.90;999.90;;;18.20;99.90;;;;;;6231721;23;20006;-88
2023/05/15 10:32:16;;;;;;;1999.90;999.90;;;18.20;99.90;;;;;;6213314;23;20012;-89
2023/05/15 10:34:43;;;;;;;1999.90;999.90;;;18.20;99.90;;;;;;6213231;23;20098;-88
2023/05/15 10:37:10;;;;;;;1999.90;999.90;;;18.20;99.90;;;;;;6202898;23;20015;-90
2023/05/15 10:39:39;;;;;;;1999.90;999.90;;;18.30;99.90;;;;;;6222211;23;20095;-90
2023/05/15 10:42:06;;;;;;;1999.90;999.90;;;18.30;99.90;;;;;;6198287;23;20375;-90
2023/05/15 10:44:32;;;;;;;1999.90;999.90;;;18.40;99.90;;;;;;6197761;23;20000;-90
2023/05/15 10:46:58;;;;;;;1999.90;999.90;;;18.40;99.90;;;;;;6197778;23;20004;-89
2023/05/15 10:49:24;;;;;;;1999.90;999.90;;;18.50;99.90;;;;;;6197666;23;20004;-90
2023/05/15 10:51:51;;;;;;;1999.90;999.90;;;18.40;99.90;;;;;;6198410;23;20335;-90
2023/05/15 10:54:20;;;;;;;1999.90;999.90;;;18.50;99.90;;;;;;6222516;23;20350;-89
2023/05/15 10:56:46;;;;;;;1999.90;999.90;;;18.50;99.90;;;;;;6222977;23;20008;-89
2023/05/15 10:59:12;;;;;;;1999.90;999.90;;;18.50;99.90;;;;;;6224672;23;20000;-90
2023/05/15 11:01:39;;;;;;;1999.90;999.90;;;18.60;99.90;;;;;;6198393;23;20035;-90
2023/05/15 11:04:13;;;;;;;1999.90;999.90;;;18.60;99.90;;;;;;6222198;23;20000;-90
2023/05/15 11:06:41;;;;;;;1999.90;999.90;;;18.60;99.90;;;;;;6222181;23;20489;-90
2023/05/15 11:09:24;;;;;;;1999.90;999.90;;;18.60;99.90;;;;;;6226899;23;20068;-91
2023/05/15 11:11:50;;;;;;;1999.90;999.90;;;18.60;99.90;;;;;;6246168;23;20051;-89
2023/05/15 11:14:16;;;;;;;1999.90;999.90;;;18.50;99.90;;;;;;6240656;23;20004;-89
2023/05/15 11:16:54;;;;;;;1999.90;999.90;;;18.60;99.90;;;;;;6198480;23;20111;-89
2023/05/15 11:19:36;;;;;;;1999.90;999.90;;;18.60;99.90;;;;;;6223546;23;20335;-91
2023/05/15 11:22:25;;;;;;;1999.90;999.90;;;18.60;99.90;;;;;;6226037;23;20001;-92
2023/05/15 11:25:02;;;;;;;1042.28;539.63;;;18.70;99.90;;;;;;6224984;23;20363;-91
2023/05/15 11:27:37;;;;;;;1999.90;999.90;;;18.70;99.90;;;;;;6224115;23;20050;-89
2023/05/15 11:30:11;;;;;;;1999.90;999.90;;;18.80;99.90;;;;;;6222603;23;20011;-89
2023/05/15 11:32:40;;;;;;;48.58;45.65;;;18.80;99.90;;;;;;6227283;23;20026;-91
2023/05/15 11:35:11;;;;;;;1999.90;999.90;;;18.90;99.90;;;;;;6228057;23;20010;-91
2023/05/15 11:37:42;;;;;;;1507.53;757.05;;;18.90;99.90;;;;;;6227879;23;20004;-91
2023/05/15 11:40:12;;;;;;;79.30;74.55;;;18.90;99.90;;;;;;6225961;23;20000;-89
2023/05/15 11:42:39;;;;;;;66.15;61.47;;;18.90;99.90;;;;;;6223510;23;20047;-88
2023/05/15 11:45:09;;;;;;;49.55;46.10;;;19.00;99.90;;;;;;6198376;23;20003;-91
2023/05/15 11:47:35;;;;;;;66.50;62.30;;;19.00;99.90;;;;;;6198657;23;19996;-92
2023/05/15 11:50:04;;;;;;;1999.90;999.90;;;19.10;99.90;;;;;;6198728;23;20008;-91
2023/05/15 11:52:30;;;;;;;80.15;74.25;;;19.00;99.90;;;;;;6223151;23;20058;-92
2023/05/15 11:54:57;;;;;;;53.30;49.38;;;19.00;99.90;;;;;;6249885;23;20055;-91
2023/05/15 11:57:23;;;;;;;80.10;73.93;;;19.00;99.90;;;;;;6198752;23;20009;-93
2023/05/15 11:59:53;;;;;;;62.88;57.53;;;19.00;99.90;;;;;;6175798;23;20022;-90
2023/05/15 12:02:19;;;;;;;45.70;41.78;;;19.00;99.90;;;;;;6200370;23;20391;-89
2023/05/15 12:04:49;;;;;;;36.20;32.50;;;19.00;99.90;;;;;;6184506;23;20016;-89
2023/05/15 12:07:15;;;;;;;38.10;34.50;;;19.00;99.90;;;;;;6239418;23;19996;-88
2023/05/15 12:09:41;;;;;;;37.58;34.10;;;19.10;99.90;;;;;;6236491;23;20004;-89
2023/05/15 12:12:13;;;;;;;32.83;29.63;;;19.10;99.90;;;;;;6212460;23;20008;-90
2023/05/15 12:14:38;;;;;;;29.70;27.00;;;19.20;99.90;;;;;;6228688;23;20039;-88
2023/05/15 12:17:04;;;;;;;29.65;26.90;;;19.20;99.90;;;;;;6223559;23;20001;-89
2023/05/15 12:19:32;;;;;;;33.50;30.23;;;19.20;99.90;;;;;;6199650;22;20024;-88
2023/05/15 12:21:58;;;;;;;43.70;39.30;;;19.20;99.90;;;;;;6248982;23;20003;-87
2023/05/15 12:24:25;;;;;;;34.67;31.48;;;19.20;99.90;;;;;;6224360;23;19989;-89
2023/05/15 12:26:51;;;;;;;64.72;59.78;;;19.20;99.90;;;;;;6249613;22;19992;-90
2023/05/15 12:29:17;;;;;;;28.80;23.88;;;19.20;99.90;;;;;;6249369;22;20019;-90